Meteo Giornale » Osservazioni meteo Messico » Mexico City-Licenci

ore: 07:45 - Osservazioni Meteo Mexico City-Licenci
Lat. 19° 26' N Lon. 99° 6' W Alt. 2238 metri s.l.m.

molto_nuvoloso America/Mexico_City

8 °C

Molto Nuvoloso

Temp. 24 Ore

8 °C

26 °C

Est

16.7 Km/h

Dew point 5 °C

Umidità 81 %

Visibilità  11 Km

Il sole sorge alle ore 06:48

Il sole tramonta alle ore 18:45

Data e Ora Cielo e Fenomeni T °C DP °C Um. % Pres. hPa Vis. km Vento km/h
Oggi h: 07:45 molto_nuvoloso Molto Nuvoloso 8 5 81 1032 11 E 16.7
Oggi h: 06:45 molto_nuvoloso Molto Nuvoloso 8 4 75 1031 11 E 11.1
Oggi h: 05:40 sereno Sereno 8 4 75 1030 13 E 9.3
Oggi h: 04:48 sereno Sereno 8 4 75 1030 13 E 16.7
Oggi h: 03:45 sereno Sereno 10 4 66 1029 10 E 9.3
Oggi h: 02:50 molto_nuvoloso Molto Nuvoloso 12 4 57 1029 10 N 5.5
Oggi h: 00:47 molto_nuvoloso Molto Nuvoloso 16 3 41 1029 10 O 11.1
Ieri h: 23:45 molto_nuvoloso Molto Nuvoloso 17 4 41 1030 10 NO 9.3
Ieri h: 21:45 molto_nuvoloso Molto Nuvoloso 19 3 34 1029 10 O 7.4
Ieri h: 20:48 molto_nuvoloso Molto Nuvoloso 20 1 28 1028 10 E/NE 16.7
Ieri h: 20:44 molto_nuvoloso Molto Nuvoloso 20 1 28 1028 10 E/NE 9.3
Ieri h: 19:45 molto_nuvoloso Molto Nuvoloso 21 -1 22 1027 10 O/SO 31.5
Ieri h: 19:14 molto_nuvoloso Molto Nuvoloso 21 1 26 1027 10 O 31.5
Ieri h: 18:46 coperto Coperto 21 1 26 1027 10 N 27.8
Ieri h: 18:29 coperto Coperto 21 2 28 1027 10 O/NO 27.8
Ieri h: 17:48 coperto Coperto 23 0 21 1026 10 N/NE 37
Ieri h: 17:44 coperto Coperto 23 0 21 1025 11 N/NE 18.5
Ieri h: 17:26 coperto Coperto 23 0 21 1025 13 O/NO 27.8
Ieri h: 16:46 coperto Coperto 25 -2 16 1024 13 O 25.9
Ieri h: 16:04 coperto Coperto 25 -2 16 1024 11 O/SO 27.8
Ieri h: 15:44 molto_nuvoloso Molto Nuvoloso 26 -7 10 1024 13 S/SE 7.4
Ieri h: 14:43 molto_nuvoloso Molto Nuvoloso 26 -5 12 1025 13 E/NE 7.4
Ieri h: 12:44 sereno Sereno 26 -1 16 1026 10 N 5.5
Ieri h: 12:26 sereno Sereno 26 2 20 1027 10 N 5.5
Ieri h: 11:41 sereno Sereno 24 5 29 1028 10 N 5.5
Ieri h: 11:33 sereno Sereno 23 5 31 1028 10 E/NE 9.3
Ieri h: 10:48 sereno Sereno 20 6 39 1028 8 N 5.5
Ieri h: 10:29 sereno Sereno 19 6 42 1029 8 N 0
Ieri h: 09:51 sereno Sereno 17 6 48 1029 8 N 0
Ieri h: 09:48 sereno Sereno 17 6 48 1029 8 N 0
Ieri h: 09:10 sereno Sereno 15 6 54 1029 8 N 0
Ieri h: 08:44 sereno Sereno 12 6 66 1029 8 N 0